sensor_id;sensor_type;location;lat;lon;timestamp;P1;durP1;ratioP1;P2;durP2;ratioP2
5163;SDS011;2601;50.224;10.126;2023-06-10T00:01:21;155.47;;;16.37;;
5163;SDS011;2601;50.224;10.126;2023-06-10T00:03:47;157.00;;;14.47;;
5163;SDS011;2601;50.224;10.126;2023-06-10T00:06:13;153.97;;;15.63;;
5163;SDS011;2601;50.224;10.126;2023-06-10T00:08:38;154.30;;;15.57;;
5163;SDS011;2601;50.224;10.126;2023-06-10T00:11:04;152.97;;;15.40;;
5163;SDS011;2601;50.224;10.126;2023-06-10T00:13:30;155.40;;;16.07;;
5163;SDS011;2601;50.224;10.126;2023-06-10T00:15:55;153.07;;;15.17;;
5163;SDS011;2601;50.224;10.126;2023-06-10T00:18:21;154.13;;;15.70;;
5163;SDS011;2601;50.224;10.126;2023-06-10T00:20:47;154.60;;;15.83;;
5163;SDS011;2601;50.224;10.126;2023-06-10T00:23:13;155.50;;;15.73;;
5163;SDS011;2601;50.224;10.126;2023-06-10T00:25:39;152.87;;;15.03;;
5163;SDS011;2601;50.224;10.126;2023-06-10T00:28:05;155.40;;;15.70;;
5163;SDS011;2601;50.224;10.126;2023-06-10T00:30:30;160.67;;;16.00;;
5163;SDS011;2601;50.224;10.126;2023-06-10T00:32:56;154.47;;;15.70;;
5163;SDS011;2601;50.224;10.126;2023-06-10T00:35:21;157.30;;;16.30;;
5163;SDS011;2601;50.224;10.126;2023-06-10T00:37:47;154.03;;;15.63;;
5163;SDS011;2601;50.224;10.126;2023-06-10T00:40:12;153.50;;;15.30;;
5163;SDS011;2601;50.224;10.126;2023-06-10T00:42:38;154.37;;;16.00;;
5163;SDS011;2601;50.224;10.126;2023-06-10T00:45:04;153.43;;;15.77;;
5163;SDS011;2601;50.224;10.126;2023-06-10T00:47:30;154.23;;;15.67;;
5163;SDS011;2601;50.224;10.126;2023-06-10T00:49:56;153.40;;;15.40;;
5163;SDS011;2601;50.224;10.126;2023-06-10T00:52:22;157.77;;;16.50;;
5163;SDS011;2601;50.224;10.126;2023-06-10T00:54:52;156.97;;;15.93;;
5163;SDS011;2601;50.224;10.126;2023-06-10T00:57:17;153.63;;;15.97;;
5163;SDS011;2601;50.224;10.126;2023-06-10T00:59:47;155.63;;;15.73;;
5163;SDS011;2601;50.224;10.126;2023-06-10T01:02:14;156.27;;;16.90;;
5163;SDS011;2601;50.224;10.126;2023-06-10T01:04:40;153.27;;;15.40;;
5163;SDS011;2601;50.224;10.126;2023-06-10T01:07:23;154.07;;;16.10;;
5163;SDS011;2601;50.224;10.126;2023-06-10T01:09:59;157.23;;;15.90;;
5163;SDS011;2601;50.224;10.126;2023-06-10T01:12:45;155.47;;;16.20;;
5163;SDS011;2601;50.224;10.126;2023-06-10T01:15:17;156.07;;;16.53;;
5163;SDS011;2601;50.224;10.126;2023-06-10T01:17:56;155.47;;;15.77;;
5163;SDS011;2601;50.224;10.126;2023-06-10T01:20:40;154.90;;;15.83;;
5163;SDS011;2601;50.224;10.126;2023-06-10T01:23:07;154.77;;;15.60;;
5163;SDS011;2601;50.224;10.126;2023-06-10T01:25:33;153.90;;;16.17;;
5163;SDS011;2601;50.224;10.126;2023-06-10T01:33:47;154.80;;;15.77;;
5163;SDS011;2601;50.224;10.126;2023-06-10T01:36:17;155.47;;;16.83;;
5163;SDS011;2601;50.224;10.126;2023-06-10T01:38:44;152.77;;;15.23;;
5163;SDS011;2601;50.224;10.126;2023-06-10T01:41:11;154.27;;;15.40;;
5163;SDS011;2601;50.224;10.126;2023-06-10T01:43:38;154.47;;;16.20;;
5163;SDS011;2601;50.224;10.126;2023-06-10T01:46:04;153.60;;;15.87;;
5163;SDS011;2601;50.224;10.126;2023-06-10T01:48:31;156.97;;;16.13;;
5163;SDS011;2601;50.224;10.126;2023-06-10T01:50:57;156.17;;;15.63;;
5163;SDS011;2601;50.224;10.126;2023-06-10T01:53:23;154.07;;;15.50;;
5163;SDS011;2601;50.224;10.126;2023-06-10T01:55:48;153.53;;;15.37;;
5163;SDS011;2601;50.224;10.126;2023-06-10T01:58:14;153.40;;;15.53;;
5163;SDS011;2601;50.224;10.126;2023-06-10T02:00:40;155.90;;;16.63;;
5163;SDS011;2601;50.224;10.126;2023-06-10T02:03:05;154.00;;;15.30;;
5163;SDS011;2601;50.224;10.126;2023-06-10T02:05:31;157.20;;;16.53;;
5163;SDS011;2601;50.224;10.126;2023-06-10T02:07:57;156.77;;;16.17;;
5163;SDS011;2601;50.224;10.126;2023-06-10T02:10:22;155.47;;;16.07;;
5163;SDS011;2601;50.224;10.126;2023-06-10T02:12:48;154.40;;;15.40;;
5163;SDS011;2601;50.224;10.126;2023-06-10T02:15:13;152.77;;;14.80;;
5163;SDS011;2601;50.224;10.126;2023-06-10T02:17:39;153.07;;;14.77;;
5163;SDS011;2601;50.224;10.126;2023-06-10T02:20:05;156.60;;;15.47;;
5163;SDS011;2601;50.224;10.126;2023-06-10T02:22:32;152.27;;;15.63;;
5163;SDS011;2601;50.224;10.126;2023-06-10T02:24:57;153.07;;;15.10;;
5163;SDS011;2601;50.224;10.126;2023-06-10T02:27:23;156.47;;;15.83;;
5163;SDS011;2601;50.224;10.126;2023-06-10T02:29:49;153.27;;;15.00;;
5163;SDS011;2601;50.224;10.126;2023-06-10T02:32:15;152.97;;;15.10;;
5163;SDS011;2601;50.224;10.126;2023-06-10T02:34:41;154.63;;;15.13;;
5163;SDS011;2601;50.224;10.126;2023-06-10T02:37:07;153.17;;;14.53;;
5163;SDS011;2601;50.224;10.126;2023-06-10T02:39:33;154.70;;;14.90;;
5163;SDS011;2601;50.224;10.126;2023-06-10T02:41:59;156.03;;;15.60;;
5163;SDS011;2601;50.224;10.126;2023-06-10T02:44:25;154.70;;;15.77;;
5163;SDS011;2601;50.224;10.126;2023-06-10T02:46:50;155.03;;;15.30;;
5163;SDS011;2601;50.224;10.126;2023-06-10T02:49:16;155.67;;;15.77;;
5163;SDS011;2601;50.224;10.126;2023-06-10T02:51:42;153.10;;;15.20;;
5163;SDS011;2601;50.224;10.126;2023-06-10T02:54:08;154.83;;;15.53;;
5163;SDS011;2601;50.224;10.126;2023-06-10T02:56:33;152.27;;;14.50;;
5163;SDS011;2601;50.224;10.126;2023-06-10T02:58:59;156.20;;;15.73;;
5163;SDS011;2601;50.224;10.126;2023-06-10T03:01:25;154.57;;;15.40;;
5163;SDS011;2601;50.224;10.126;2023-06-10T03:03:51;153.27;;;15.30;;
5163;SDS011;2601;50.224;10.126;2023-06-10T03:06:17;153.30;;;15.20;;
5163;SDS011;2601;50.224;10.126;2023-06-10T03:08:43;156.80;;;15.37;;
5163;SDS011;2601;50.224;10.126;2023-06-10T03:11:10;153.27;;;15.70;;
5163;SDS011;2601;50.224;10.126;2023-06-10T03:13:36;151.57;;;14.40;;
5163;SDS011;2601;50.224;10.126;2023-06-10T03:16:03;155.67;;;16.73;;
5163;SDS011;2601;50.224;10.126;2023-06-10T03:18:29;151.90;;;15.07;;
5163;SDS011;2601;50.224;10.126;2023-06-10T03:20:55;154.33;;;15.43;;
5163;SDS011;2601;50.224;10.126;2023-06-10T03:23:22;153.00;;;14.67;;
5163;SDS011;2601;50.224;10.126;2023-06-10T03:25:48;155.00;;;15.90;;
5163;SDS011;2601;50.224;10.126;2023-06-10T03:28:13;152.87;;;14.70;;
5163;SDS011;2601;50.224;10.126;2023-06-10T03:30:39;154.67;;;16.30;;
5163;SDS011;2601;50.224;10.126;2023-06-10T03:33:05;155.40;;;16.70;;
5163;SDS011;2601;50.224;10.126;2023-06-10T03:35:30;153.63;;;15.47;;
5163;SDS011;2601;50.224;10.126;2023-06-10T03:37:59;154.73;;;14.90;;
5163;SDS011;2601;50.224;10.126;2023-06-10T03:40:25;154.03;;;14.77;;
5163;SDS011;2601;50.224;10.126;2023-06-10T03:42:50;153.53;;;15.23;;
5163;SDS011;2601;50.224;10.126;2023-06-10T03:45:16;153.73;;;14.90;;
5163;SDS011;2601;50.224;10.126;2023-06-10T03:47:42;152.80;;;15.03;;
5163;SDS011;2601;50.224;10.126;2023-06-10T03:50:08;153.30;;;14.10;;
5163;SDS011;2601;50.224;10.126;2023-06-10T03:52:35;154.40;;;14.87;;
5163;SDS011;2601;50.224;10.126;2023-06-10T03:55:01;157.77;;;16.50;;
5163;SDS011;2601;50.224;10.126;2023-06-10T03:57:27;156.33;;;16.57;;
5163;SDS011;2601;50.224;10.126;2023-06-10T03:59:53;158.67;;;15.70;;
5163;SDS011;2601;50.224;10.126;2023-06-10T04:02:20;155.57;;;15.43;;
5163;SDS011;2601;50.224;10.126;2023-06-10T04:04:46;157.50;;;15.60;;
5163;SDS011;2601;50.224;10.126;2023-06-10T04:07:11;157.70;;;16.10;;
5163;SDS011;2601;50.224;10.126;2023-06-10T04:09:37;155.10;;;15.57;;
5163;SDS011;2601;50.224;10.126;2023-06-10T04:12:03;154.63;;;15.70;;
5163;SDS011;2601;50.224;10.126;2023-06-10T04:14:33;153.90;;;15.20;;
5163;SDS011;2601;50.224;10.126;2023-06-10T04:17:00;155.47;;;15.53;;
5163;SDS011;2601;50.224;10.126;2023-06-10T04:19:26;157.50;;;16.10;;
5163;SDS011;2601;50.224;10.126;2023-06-10T04:21:53;153.47;;;14.67;;
5163;SDS011;2601;50.224;10.126;2023-06-10T04:24:19;153.93;;;15.10;;
5163;SDS011;2601;50.224;10.126;2023-06-10T04:26:44;155.30;;;15.30;;
5163;SDS011;2601;50.224;10.126;2023-06-10T04:29:10;154.27;;;14.80;;
5163;SDS011;2601;50.224;10.126;2023-06-10T04:31:35;155.87;;;15.07;;
5163;SDS011;2601;50.224;10.126;2023-06-10T04:34:01;155.63;;;16.07;;
5163;SDS011;2601;50.224;10.126;2023-06-10T04:36:27;155.90;;;15.40;;
5163;SDS011;2601;50.224;10.126;2023-06-10T04:38:54;156.80;;;16.47;;
5163;SDS011;2601;50.224;10.126;2023-06-10T04:41:19;158.90;;;16.60;;
5163;SDS011;2601;50.224;10.126;2023-06-10T04:43:45;155.60;;;15.97;;
5163;SDS011;2601;50.224;10.126;2023-06-10T04:46:11;156.33;;;15.73;;
5163;SDS011;2601;50.224;10.126;2023-06-10T04:48:38;155.87;;;16.10;;
5163;SDS011;2601;50.224;10.126;2023-06-10T04:51:04;158.40;;;15.23;;
5163;SDS011;2601;50.224;10.126;2023-06-10T04:53:30;153.70;;;15.57;;
5163;SDS011;2601;50.224;10.126;2023-06-10T04:55:56;154.07;;;15.50;;
5163;SDS011;2601;50.224;10.126;2023-06-10T04:58:22;153.33;;;15.10;;
5163;SDS011;2601;50.224;10.126;2023-06-10T05:00:48;156.67;;;15.47;;
5163;SDS011;2601;50.224;10.126;2023-06-10T05:03:14;154.30;;;15.50;;
5163;SDS011;2601;50.224;10.126;2023-06-10T05:05:40;154.00;;;15.10;;
5163;SDS011;2601;50.224;10.126;2023-06-10T05:08:05;155.00;;;15.17;;
5163;SDS011;2601;50.224;10.126;2023-06-10T05:10:31;154.60;;;15.13;;
5163;SDS011;2601;50.224;10.126;2023-06-10T05:12:57;153.67;;;15.23;;
5163;SDS011;2601;50.224;10.126;2023-06-10T05:15:23;155.57;;;16.40;;
5163;SDS011;2601;50.224;10.126;2023-06-10T05:17:49;155.47;;;15.10;;
5163;SDS011;2601;50.224;10.126;2023-06-10T05:20:15;156.27;;;15.87;;
5163;SDS011;2601;50.224;10.126;2023-06-10T05:22:41;152.40;;;14.20;;
5163;SDS011;2601;50.224;10.126;2023-06-10T05:25:06;153.47;;;15.10;;
5163;SDS011;2601;50.224;10.126;2023-06-10T05:27:32;155.20;;;14.80;;
5163;SDS011;2601;50.224;10.126;2023-06-10T05:29:58;157.07;;;15.10;;
5163;SDS011;2601;50.224;10.126;2023-06-10T05:32:24;155.10;;;15.50;;
5163;SDS011;2601;50.224;10.126;2023-06-10T05:34:49;153.67;;;14.67;;
5163;SDS011;2601;50.224;10.126;2023-06-10T05:37:15;154.87;;;14.20;;
5163;SDS011;2601;50.224;10.126;2023-06-10T05:39:40;154.60;;;15.37;;
5163;SDS011;2601;50.224;10.126;2023-06-10T05:42:06;154.67;;;14.60;;
5163;SDS011;2601;50.224;10.126;2023-06-10T05:44:33;156.00;;;15.47;;
5163;SDS011;2601;50.224;10.126;2023-06-10T05:46:58;154.13;;;15.17;;
5163;SDS011;2601;50.224;10.126;2023-06-10T05:49:24;153.50;;;14.57;;
5163;SDS011;2601;50.224;10.126;2023-06-10T05:51:50;155.00;;;15.20;;
5163;SDS011;2601;50.224;10.126;2023-06-10T05:54:17;154.73;;;14.87;;
5163;SDS011;2601;50.224;10.126;2023-06-10T05:56:43;155.60;;;14.53;;
5163;SDS011;2601;50.224;10.126;2023-06-10T05:59:09;155.17;;;14.90;;
5163;SDS011;2601;50.224;10.126;2023-06-10T06:01:34;153.33;;;14.33;;
5163;SDS011;2601;50.224;10.126;2023-06-10T06:04:00;158.77;;;15.23;;
5163;SDS011;2601;50.224;10.126;2023-06-10T06:06:25;153.90;;;14.60;;
5163;SDS011;2601;50.224;10.126;2023-06-10T06:08:51;153.67;;;15.20;;
5163;SDS011;2601;50.224;10.126;2023-06-10T06:11:17;153.40;;;14.17;;
5163;SDS011;2601;50.224;10.126;2023-06-10T06:13:42;152.57;;;14.30;;
5163;SDS011;2601;50.224;10.126;2023-06-10T06:16:08;154.97;;;14.37;;
5163;SDS011;2601;50.224;10.126;2023-06-10T06:18:33;153.80;;;14.03;;
5163;SDS011;2601;50.224;10.126;2023-06-10T06:20:59;156.87;;;15.17;;
5163;SDS011;2601;50.224;10.126;2023-06-10T06:23:25;153.67;;;14.73;;
5163;SDS011;2601;50.224;10.126;2023-06-10T06:25:50;155.10;;;14.97;;
5163;SDS011;2601;50.224;10.126;2023-06-10T06:28:16;154.13;;;14.80;;
5163;SDS011;2601;50.224;10.126;2023-06-10T06:30:43;158.73;;;15.63;;
5163;SDS011;2601;50.224;10.126;2023-06-10T06:33:09;152.03;;;13.30;;
5163;SDS011;2601;50.224;10.126;2023-06-10T06:35:35;156.03;;;14.73;;
5163;SDS011;2601;50.224;10.126;2023-06-10T06:38:03;155.87;;;15.20;;
5163;SDS011;2601;50.224;10.126;2023-06-10T06:40:29;152.30;;;13.97;;
5163;SDS011;2601;50.224;10.126;2023-06-10T06:42:54;154.60;;;14.47;;
5163;SDS011;2601;50.224;10.126;2023-06-10T06:45:20;153.57;;;14.80;;
5163;SDS011;2601;50.224;10.126;2023-06-10T06:47:46;154.40;;;13.67;;
5163;SDS011;2601;50.224;10.126;2023-06-10T06:50:11;154.87;;;14.30;;
5163;SDS011;2601;50.224;10.126;2023-06-10T06:52:37;154.17;;;14.77;;
5163;SDS011;2601;50.224;10.126;2023-06-10T06:55:02;151.50;;;14.20;;
5163;SDS011;2601;50.224;10.126;2023-06-10T06:57:28;155.43;;;16.63;;
5163;SDS011;2601;50.224;10.126;2023-06-10T06:59:54;153.07;;;14.60;;
5163;SDS011;2601;50.224;10.126;2023-06-10T07:02:19;152.90;;;14.53;;
5163;SDS011;2601;50.224;10.126;2023-06-10T07:04:45;152.17;;;14.30;;
5163;SDS011;2601;50.224;10.126;2023-06-10T07:07:13;153.17;;;14.50;;
5163;SDS011;2601;50.224;10.126;2023-06-10T07:09:39;154.30;;;14.70;;
5163;SDS011;2601;50.224;10.126;2023-06-10T07:12:05;152.73;;;14.30;;
5163;SDS011;2601;50.224;10.126;2023-06-10T07:14:31;158.40;;;15.43;;
5163;SDS011;2601;50.224;10.126;2023-06-10T07:16:56;156.07;;;15.87;;
5163;SDS011;2601;50.224;10.126;2023-06-10T07:19:22;155.03;;;14.33;;
5163;SDS011;2601;50.224;10.126;2023-06-10T07:21:48;154.07;;;13.67;;
5163;SDS011;2601;50.224;10.126;2023-06-10T07:24:13;152.77;;;13.97;;
5163;SDS011;2601;50.224;10.126;2023-06-10T07:26:39;154.73;;;15.40;;
5163;SDS011;2601;50.224;10.126;2023-06-10T07:29:04;154.57;;;15.47;;
5163;SDS011;2601;50.224;10.126;2023-06-10T07:31:30;153.90;;;14.83;;
5163;SDS011;2601;50.224;10.126;2023-06-10T07:33:56;153.17;;;14.10;;
5163;SDS011;2601;50.224;10.126;2023-06-10T07:36:21;151.57;;;13.77;;
5163;SDS011;2601;50.224;10.126;2023-06-10T07:38:47;154.07;;;15.03;;
5163;SDS011;2601;50.224;10.126;2023-06-10T07:41:13;152.93;;;15.00;;
5163;SDS011;2601;50.224;10.126;2023-06-10T07:43:39;160.53;;;14.70;;
5163;SDS011;2601;50.224;10.126;2023-06-10T07:46:05;152.67;;;15.10;;
5163;SDS011;2601;50.224;10.126;2023-06-10T07:48:30;153.70;;;14.23;;
5163;SDS011;2601;50.224;10.126;2023-06-10T07:50:56;152.80;;;14.60;;
5163;SDS011;2601;50.224;10.126;2023-06-10T07:53:21;153.27;;;14.80;;
5163;SDS011;2601;50.224;10.126;2023-06-10T07:55:47;153.37;;;14.10;;
5163;SDS011;2601;50.224;10.126;2023-06-10T07:58:13;153.10;;;14.53;;
5163;SDS011;2601;50.224;10.126;2023-06-10T08:00:38;152.90;;;13.93;;
5163;SDS011;2601;50.224;10.126;2023-06-10T08:03:04;152.20;;;14.13;;
5163;SDS011;2601;50.224;10.126;2023-06-10T08:05:30;153.03;;;14.10;;
5163;SDS011;2601;50.224;10.126;2023-06-10T08:07:55;153.87;;;14.30;;
5163;SDS011;2601;50.224;10.126;2023-06-10T08:10:21;152.53;;;13.80;;
5163;SDS011;2601;50.224;10.126;2023-06-10T08:12:46;154.20;;;15.60;;
5163;SDS011;2601;50.224;10.126;2023-06-10T08:15:12;156.10;;;14.30;;
5163;SDS011;2601;50.224;10.126;2023-06-10T08:17:38;153.27;;;14.50;;
5163;SDS011;2601;50.224;10.126;2023-06-10T08:20:04;153.60;;;14.60;;
5163;SDS011;2601;50.224;10.126;2023-06-10T08:22:31;153.70;;;14.67;;
5163;SDS011;2601;50.224;10.126;2023-06-10T08:24:56;153.77;;;14.90;;
5163;SDS011;2601;50.224;10.126;2023-06-10T08:27:22;152.57;;;14.70;;
5163;SDS011;2601;50.224;10.126;2023-06-10T08:29:48;154.13;;;13.77;;
5163;SDS011;2601;50.224;10.126;2023-06-10T08:32:13;152.77;;;13.77;;
5163;SDS011;2601;50.224;10.126;2023-06-10T08:34:39;154.03;;;14.80;;
5163;SDS011;2601;50.224;10.126;2023-06-10T08:37:05;155.70;;;15.23;;
5163;SDS011;2601;50.224;10.126;2023-06-10T08:39:31;152.80;;;14.40;;
5163;SDS011;2601;50.224;10.126;2023-06-10T08:44:46;151.97;;;14.13;;
5163;SDS011;2601;50.224;10.126;2023-06-10T08:47:13;151.97;;;13.67;;
5163;SDS011;2601;50.224;10.126;2023-06-10T08:49:47;151.87;;;14.10;;
5163;SDS011;2601;50.224;10.126;2023-06-10T08:52:14;151.77;;;14.47;;
5163;SDS011;2601;50.224;10.126;2023-06-10T08:54:42;151.87;;;14.00;;
5163;SDS011;2601;50.224;10.126;2023-06-10T08:57:17;151.23;;;13.20;;
5163;SDS011;2601;50.224;10.126;2023-06-10T08:59:45;153.17;;;14.17;;
5163;SDS011;2601;50.224;10.126;2023-06-10T09:02:11;151.77;;;13.87;;
5163;SDS011;2601;50.224;10.126;2023-06-10T09:04:40;152.27;;;14.00;;
5163;SDS011;2601;50.224;10.126;2023-06-10T09:07:11;151.40;;;13.97;;
5163;SDS011;2601;50.224;10.126;2023-06-10T09:09:39;152.70;;;14.20;;
5163;SDS011;2601;50.224;10.126;2023-06-10T09:12:06;152.30;;;13.30;;
5163;SDS011;2601;50.224;10.126;2023-06-10T09:14:32;151.60;;;13.60;;
5163;SDS011;2601;50.224;10.126;2023-06-10T09:16:58;151.50;;;13.97;;
5163;SDS011;2601;50.224;10.126;2023-06-10T09:19:25;154.07;;;13.80;;
5163;SDS011;2601;50.224;10.126;2023-06-10T09:21:51;155.40;;;15.33;;
5163;SDS011;2601;50.224;10.126;2023-06-10T09:24:17;157.17;;;15.63;;
5163;SDS011;2601;50.224;10.126;2023-06-10T09:26:43;153.57;;;14.23;;
5163;SDS011;2601;50.224;10.126;2023-06-10T09:29:10;152.57;;;14.13;;
5163;SDS011;2601;50.224;10.126;2023-06-10T09:31:37;150.57;;;13.03;;
5163;SDS011;2601;50.224;10.126;2023-06-10T09:34:14;152.17;;;14.60;;
5163;SDS011;2601;50.224;10.126;2023-06-10T09:36:42;152.20;;;13.60;;
5163;SDS011;2601;50.224;10.126;2023-06-10T09:39:14;152.57;;;14.17;;
5163;SDS011;2601;50.224;10.126;2023-06-10T09:41:41;152.03;;;14.10;;
5163;SDS011;2601;50.224;10.126;2023-06-10T09:44:13;152.77;;;14.30;;
5163;SDS011;2601;50.224;10.126;2023-06-10T09:46:48;150.97;;;13.40;;
5163;SDS011;2601;50.224;10.126;2023-06-10T09:49:18;151.77;;;13.90;;
5163;SDS011;2601;50.224;10.126;2023-06-10T09:51:53;152.00;;;13.77;;
5163;SDS011;2601;50.224;10.126;2023-06-10T09:54:20;154.50;;;14.07;;
5163;SDS011;2601;50.224;10.126;2023-06-10T09:56:50;153.70;;;14.00;;
5163;SDS011;2601;50.224;10.126;2023-06-10T09:59:27;156.17;;;14.33;;
5163;SDS011;2601;50.224;10.126;2023-06-10T10:01:55;153.70;;;14.67;;
5163;SDS011;2601;50.224;10.126;2023-06-10T10:04:24;152.13;;;14.10;;
5163;SDS011;2601;50.224;10.126;2023-06-10T10:06:50;153.50;;;14.47;;
5163;SDS011;2601;50.224;10.126;2023-06-10T10:09:16;151.40;;;13.63;;
5163;SDS011;2601;50.224;10.126;2023-06-10T10:11:42;151.53;;;13.67;;
5163;SDS011;2601;50.224;10.126;2023-06-10T10:14:09;151.10;;;13.43;;
5163;SDS011;2601;50.224;10.126;2023-06-10T10:16:36;153.00;;;14.50;;
5163;SDS011;2601;50.224;10.126;2023-06-10T10:19:11;150.27;;;13.63;;
5163;SDS011;2601;50.224;10.126;2023-06-10T10:21:50;151.37;;;12.63;;
5163;SDS011;2601;50.224;10.126;2023-06-10T10:24:20;152.17;;;13.13;;
5163;SDS011;2601;50.224;10.126;2023-06-10T10:26:48;153.27;;;14.03;;
5163;SDS011;2601;50.224;10.126;2023-06-10T10:29:25;150.73;;;13.40;;
5163;SDS011;2601;50.224;10.126;2023-06-10T10:31:56;153.27;;;13.87;;
5163;SDS011;2601;50.224;10.126;2023-06-10T10:34:29;152.50;;;13.80;;
5163;SDS011;2601;50.224;10.126;2023-06-10T10:37:00;152.10;;;13.00;;
5163;SDS011;2601;50.224;10.126;2023-06-10T10:39:26;151.70;;;13.87;;
5163;SDS011;2601;50.224;10.126;2023-06-10T10:41:53;150.87;;;13.20;;
5163;SDS011;2601;50.224;10.126;2023-06-10T10:44:20;150.90;;;13.03;;
5163;SDS011;2601;50.224;10.126;2023-06-10T10:46:50;152.53;;;14.57;;
5163;SDS011;2601;50.224;10.126;2023-06-10T10:49:16;150.87;;;13.30;;
5163;SDS011;2601;50.224;10.126;2023-06-10T10:51:56;153.53;;;14.20;;
5163;SDS011;2601;50.224;10.126;2023-06-10T10:54:32;152.20;;;14.07;;
5163;SDS011;2601;50.224;10.126;2023-06-10T11:02:41;152.30;;;14.00;;
5163;SDS011;2601;50.224;10.126;2023-06-10T11:05:09;151.27;;;13.50;;
5163;SDS011;2601;50.224;10.126;2023-06-10T11:07:55;152.37;;;13.53;;
5163;SDS011;2601;50.224;10.126;2023-06-10T11:10:30;151.90;;;14.27;;
5163;SDS011;2601;50.224;10.126;2023-06-10T11:12:57;151.30;;;13.90;;
5163;SDS011;2601;50.224;10.126;2023-06-10T11:15:25;150.20;;;13.77;;
5163;SDS011;2601;50.224;10.126;2023-06-10T11:18:08;151.07;;;12.80;;
5163;SDS011;2601;50.224;10.126;2023-06-10T11:23:25;152.20;;;12.43;;
5163;SDS011;2601;50.224;10.126;2023-06-10T11:28:38;149.57;;;12.57;;
5163;SDS011;2601;50.224;10.126;2023-06-10T11:31:05;149.90;;;12.10;;
5163;SDS011;2601;50.224;10.126;2023-06-10T11:33:31;150.90;;;12.47;;
5163;SDS011;2601;50.224;10.126;2023-06-10T11:35:57;151.33;;;14.00;;
5163;SDS011;2601;50.224;10.126;2023-06-10T11:38:23;150.07;;;13.00;;
5163;SDS011;2601;50.224;10.126;2023-06-10T11:40:49;151.20;;;12.83;;
5163;SDS011;2601;50.224;10.126;2023-06-10T11:43:16;150.97;;;12.70;;
5163;SDS011;2601;50.224;10.126;2023-06-10T11:45:43;152.83;;;13.17;;
5163;SDS011;2601;50.224;10.126;2023-06-10T11:48:09;151.63;;;13.33;;
5163;SDS011;2601;50.224;10.126;2023-06-10T11:50:35;153.97;;;12.63;;
5163;SDS011;2601;50.224;10.126;2023-06-10T11:53:01;152.57;;;13.80;;
5163;SDS011;2601;50.224;10.126;2023-06-10T11:55:43;151.07;;;13.13;;
5163;SDS011;2601;50.224;10.126;2023-06-10T12:00:46;150.83;;;12.90;;
5163;SDS011;2601;50.224;10.126;2023-06-10T12:03:14;149.70;;;12.67;;
5163;SDS011;2601;50.224;10.126;2023-06-10T12:05:40;149.70;;;12.90;;
5163;SDS011;2601;50.224;10.126;2023-06-10T12:08:18;151.70;;;14.00;;
5163;SDS011;2601;50.224;10.126;2023-06-10T12:10:43;151.00;;;13.03;;
5163;SDS011;2601;50.224;10.126;2023-06-10T12:13:09;152.03;;;12.80;;
5163;SDS011;2601;50.224;10.126;2023-06-10T12:15:35;151.47;;;12.80;;
5163;SDS011;2601;50.224;10.126;2023-06-10T12:18:01;149.37;;;12.50;;
5163;SDS011;2601;50.224;10.126;2023-06-10T12:20:28;152.63;;;13.10;;
5163;SDS011;2601;50.224;10.126;2023-06-10T12:23:07;151.57;;;12.83;;
5163;SDS011;2601;50.224;10.126;2023-06-10T12:25:34;152.40;;;13.03;;
5163;SDS011;2601;50.224;10.126;2023-06-10T12:28:02;148.60;;;12.43;;
5163;SDS011;2601;50.224;10.126;2023-06-10T12:30:27;151.43;;;12.37;;
5163;SDS011;2601;50.224;10.126;2023-06-10T12:32:54;149.87;;;13.07;;
5163;SDS011;2601;50.224;10.126;2023-06-10T12:35:22;150.47;;;12.70;;
5163;SDS011;2601;50.224;10.126;2023-06-10T12:37:59;149.27;;;12.20;;
5163;SDS011;2601;50.224;10.126;2023-06-10T12:40:31;151.47;;;12.60;;
5163;SDS011;2601;50.224;10.126;2023-06-10T12:43:06;150.37;;;12.73;;
5163;SDS011;2601;50.224;10.126;2023-06-10T12:45:32;149.67;;;12.27;;
5163;SDS011;2601;50.224;10.126;2023-06-10T12:48:07;150.40;;;12.60;;
5163;SDS011;2601;50.224;10.126;2023-06-10T12:50:41;150.67;;;12.83;;
5163;SDS011;2601;50.224;10.126;2023-06-10T12:53:07;150.53;;;12.87;;
5163;SDS011;2601;50.224;10.126;2023-06-10T12:55:33;150.10;;;12.23;;
5163;SDS011;2601;50.224;10.126;2023-06-10T12:57:59;151.67;;;13.23;;
5163;SDS011;2601;50.224;10.126;2023-06-10T13:00:26;153.10;;;12.43;;
5163;SDS011;2601;50.224;10.126;2023-06-10T13:02:54;150.90;;;13.10;;
5163;SDS011;2601;50.224;10.126;2023-06-10T13:05:25;149.90;;;12.30;;
5163;SDS011;2601;50.224;10.126;2023-06-10T13:07:51;150.73;;;11.83;;
5163;SDS011;2601;50.224;10.126;2023-06-10T13:10:17;152.07;;;12.37;;
5163;SDS011;2601;50.224;10.126;2023-06-10T13:12:43;150.83;;;12.90;;
5163;SDS011;2601;50.224;10.126;2023-06-10T13:15:09;149.77;;;12.83;;
5163;SDS011;2601;50.224;10.126;2023-06-10T13:17:35;150.03;;;11.63;;
5163;SDS011;2601;50.224;10.126;2023-06-10T13:20:04;152.57;;;12.97;;
5163;SDS011;2601;50.224;10.126;2023-06-10T13:22:31;151.07;;;12.77;;
5163;SDS011;2601;50.224;10.126;2023-06-10T13:25:04;150.30;;;12.73;;
5163;SDS011;2601;50.224;10.126;2023-06-10T13:27:31;148.43;;;10.97;;
5163;SDS011;2601;50.224;10.126;2023-06-10T13:29:57;150.70;;;12.67;;
5163;SDS011;2601;50.224;10.126;2023-06-10T13:32:23;149.37;;;12.27;;
5163;SDS011;2601;50.224;10.126;2023-06-10T13:34:48;150.20;;;12.30;;
5163;SDS011;2601;50.224;10.126;2023-06-10T13:37:18;150.00;;;12.20;;
5163;SDS011;2601;50.224;10.126;2023-06-10T13:39:44;149.77;;;11.80;;
5163;SDS011;2601;50.224;10.126;2023-06-10T13:42:13;149.50;;;11.87;;
5163;SDS011;2601;50.224;10.126;2023-06-10T13:44:39;150.27;;;13.10;;
5163;SDS011;2601;50.224;10.126;2023-06-10T13:47:05;148.87;;;12.20;;
5163;SDS011;2601;50.224;10.126;2023-06-10T13:49:31;149.53;;;11.70;;
5163;SDS011;2601;50.224;10.126;2023-06-10T13:51:57;151.37;;;13.13;;
5163;SDS011;2601;50.224;10.126;2023-06-10T13:54:22;148.57;;;11.40;;
5163;SDS011;2601;50.224;10.126;2023-06-10T13:56:48;148.90;;;12.67;;
5163;SDS011;2601;50.224;10.126;2023-06-10T13:59:14;146.90;;;11.20;;
5163;SDS011;2601;50.224;10.126;2023-06-10T14:01:39;149.83;;;12.07;;
5163;SDS011;2601;50.224;10.126;2023-06-10T14:04:07;148.80;;;11.40;;
5163;SDS011;2601;50.224;10.126;2023-06-10T14:06:33;148.33;;;12.00;;
5163;SDS011;2601;50.224;10.126;2023-06-10T14:09:02;150.37;;;11.83;;
5163;SDS011;2601;50.224;10.126;2023-06-10T14:11:27;149.87;;;12.10;;
5163;SDS011;2601;50.224;10.126;2023-06-10T14:13:53;149.03;;;11.80;;
5163;SDS011;2601;50.224;10.126;2023-06-10T14:16:21;150.87;;;12.67;;
5163;SDS011;2601;50.224;10.126;2023-06-10T14:18:46;150.33;;;12.10;;
5163;SDS011;2601;50.224;10.126;2023-06-10T14:21:12;150.47;;;12.23;;
5163;SDS011;2601;50.224;10.126;2023-06-10T14:23:38;150.23;;;13.07;;
5163;SDS011;2601;50.224;10.126;2023-06-10T14:26:03;151.60;;;12.27;;
5163;SDS011;2601;50.224;10.126;2023-06-10T14:28:31;150.27;;;12.70;;
5163;SDS011;2601;50.224;10.126;2023-06-10T14:30:56;149.70;;;12.03;;
5163;SDS011;2601;50.224;10.126;2023-06-10T14:33:22;150.67;;;12.70;;
5163;SDS011;2601;50.224;10.126;2023-06-10T14:35:48;148.23;;;11.80;;
5163;SDS011;2601;50.224;10.126;2023-06-10T14:38:13;152.00;;;12.97;;
5163;SDS011;2601;50.224;10.126;2023-06-10T14:40:39;150.40;;;12.77;;
5163;SDS011;2601;50.224;10.126;2023-06-10T14:43:05;151.90;;;12.87;;